sensor_id;sensor_type;location;lat;lon;timestamp;P1;durP1;ratioP1;P2;durP2;ratioP2
13321;SDS011;6730;46.248;6.930;2023-02-25T00:01:17;2.60;;;2.40;;
13321;SDS011;6730;46.248;6.930;2023-02-25T00:03:44;2.03;;;1.73;;
13321;SDS011;6730;46.248;6.930;2023-02-25T00:06:11;2.55;;;1.48;;
13321;SDS011;6730;46.248;6.930;2023-02-25T00:08:38;2.90;;;1.73;;
13321;SDS011;6730;46.248;6.930;2023-02-25T00:11:04;1.92;;;1.60;;
13321;SDS011;6730;46.248;6.930;2023-02-25T00:13:31;3.00;;;2.00;;
13321;SDS011;6730;46.248;6.930;2023-02-25T00:15:58;4.85;;;1.58;;
13321;SDS011;6730;46.248;6.930;2023-02-25T00:18:27;2.15;;;1.70;;
13321;SDS011;6730;46.248;6.930;2023-02-25T00:20:54;1.83;;;1.35;;
13321;SDS011;6730;46.248;6.930;2023-02-25T00:23:20;3.42;;;1.85;;
13321;SDS011;6730;46.248;6.930;2023-02-25T00:25:46;2.25;;;1.63;;
13321;SDS011;6730;46.248;6.930;2023-02-25T00:28:12;2.17;;;1.42;;
13321;SDS011;6730;46.248;6.930;2023-02-25T00:30:38;2.42;;;2.22;;
13321;SDS011;6730;46.248;6.930;2023-02-25T00:33:04;1.67;;;1.40;;
13321;SDS011;6730;46.248;6.930;2023-02-25T00:35:31;2.10;;;1.27;;
13321;SDS011;6730;46.248;6.930;2023-02-25T00:37:57;1.63;;;1.30;;
13321;SDS011;6730;46.248;6.930;2023-02-25T00:40:23;4.15;;;1.30;;
13321;SDS011;6730;46.248;6.930;2023-02-25T00:42:49;1.17;;;1.08;;
13321;SDS011;6730;46.248;6.930;2023-02-25T00:45:16;1.70;;;1.02;;
13321;SDS011;6730;46.248;6.930;2023-02-25T00:47:54;1.17;;;1.02;;
13321;SDS011;6730;46.248;6.930;2023-02-25T00:50:20;2.00;;;1.10;;
13321;SDS011;6730;46.248;6.930;2023-02-25T00:52:45;1.27;;;1.17;;
13321;SDS011;6730;46.248;6.930;2023-02-25T00:55:11;2.40;;;1.00;;
13321;SDS011;6730;46.248;6.930;2023-02-25T00:57:37;1.48;;;1.10;;
13321;SDS011;6730;46.248;6.930;2023-02-25T01:00:04;1.27;;;1.05;;
13321;SDS011;6730;46.248;6.930;2023-02-25T01:02:35;1.92;;;1.30;;
13321;SDS011;6730;46.248;6.930;2023-02-25T01:05:01;0.95;;;0.85;;
13321;SDS011;6730;46.248;6.930;2023-02-25T01:07:27;2.08;;;1.05;;
13321;SDS011;6730;46.248;6.930;2023-02-25T01:09:56;2.60;;;1.10;;
13321;SDS011;6730;46.248;6.930;2023-02-25T01:12:21;1.20;;;1.10;;
13321;SDS011;6730;46.248;6.930;2023-02-25T01:14:47;1.73;;;1.10;;
13321;SDS011;6730;46.248;6.930;2023-02-25T01:17:13;1.20;;;1.10;;
13321;SDS011;6730;46.248;6.930;2023-02-25T01:19:39;2.47;;;1.65;;
13321;SDS011;6730;46.248;6.930;2023-02-25T01:22:04;1.90;;;1.70;;
13321;SDS011;6730;46.248;6.930;2023-02-25T01:24:31;3.08;;;1.77;;
13321;SDS011;6730;46.248;6.930;2023-02-25T01:26:59;1.98;;;1.70;;
13321;SDS011;6730;46.248;6.930;2023-02-25T01:29:28;1.85;;;1.30;;
13321;SDS011;6730;46.248;6.930;2023-02-25T01:31:57;1.48;;;1.10;;
13321;SDS011;6730;46.248;6.930;2023-02-25T01:34:24;1.73;;;1.30;;
13321;SDS011;6730;46.248;6.930;2023-02-25T01:36:51;1.67;;;1.20;;
13321;SDS011;6730;46.248;6.930;2023-02-25T01:39:17;2.45;;;1.33;;
13321;SDS011;6730;46.248;6.930;2023-02-25T01:41:45;1.40;;;1.30;;
13321;SDS011;6730;46.248;6.930;2023-02-25T01:44:18;2.75;;;1.17;;
13321;SDS011;6730;46.248;6.930;2023-02-25T01:46:45;1.48;;;1.20;;
13321;SDS011;6730;46.248;6.930;2023-02-25T01:49:26;4.05;;;1.20;;
13321;SDS011;6730;46.248;6.930;2023-02-25T01:52:02;1.20;;;1.10;;
13321;SDS011;6730;46.248;6.930;2023-02-25T01:54:31;1.50;;;1.08;;
13321;SDS011;6730;46.248;6.930;2023-02-25T01:56:58;1.77;;;1.30;;
13321;SDS011;6730;46.248;6.930;2023-02-25T01:59:25;1.13;;;1.05;;
13321;SDS011;6730;46.248;6.930;2023-02-25T02:01:52;1.58;;;1.15;;
13321;SDS011;6730;46.248;6.930;2023-02-25T02:04:19;2.75;;;1.10;;
13321;SDS011;6730;46.248;6.930;2023-02-25T02:06:47;2.25;;;1.20;;
13321;SDS011;6730;46.248;6.930;2023-02-25T02:09:18;2.20;;;1.10;;
13321;SDS011;6730;46.248;6.930;2023-02-25T02:11:46;1.55;;;1.00;;
13321;SDS011;6730;46.248;6.930;2023-02-25T02:14:16;1.20;;;1.00;;
13321;SDS011;6730;46.248;6.930;2023-02-25T02:33:13;1.10;;;0.80;;
13321;SDS011;6730;46.248;6.930;2023-02-25T02:38:45;2.08;;;1.00;;
13321;SDS011;6730;46.248;6.930;2023-02-25T02:41:32;1.25;;;0.80;;
13321;SDS011;6730;46.248;6.930;2023-02-25T02:44:02;0.85;;;0.85;;
13321;SDS011;6730;46.248;6.930;2023-02-25T02:46:37;0.90;;;0.80;;
13321;SDS011;6730;46.248;6.930;2023-02-25T02:51:45;1.00;;;0.90;;
13321;SDS011;6730;46.248;6.930;2023-02-25T02:54:14;3.15;;;0.85;;
13321;SDS011;6730;46.248;6.930;2023-02-25T02:56:42;1.00;;;0.90;;
13321;SDS011;6730;46.248;6.930;2023-02-25T02:59:14;1.30;;;1.00;;
13321;SDS011;6730;46.248;6.930;2023-02-25T03:01:53;1.25;;;1.15;;
13321;SDS011;6730;46.248;6.930;2023-02-25T03:04:29;3.15;;;0.88;;
13321;SDS011;6730;46.248;6.930;2023-02-25T03:07:07;4.15;;;1.00;;
13321;SDS011;6730;46.248;6.930;2023-02-25T03:09:40;1.33;;;0.80;;
13321;SDS011;6730;46.248;6.930;2023-02-25T03:12:09;2.08;;;1.00;;
13321;SDS011;6730;46.248;6.930;2023-02-25T03:14:36;2.03;;;1.00;;
13321;SDS011;6730;46.248;6.930;2023-02-25T03:17:15;1.10;;;0.77;;
13321;SDS011;6730;46.248;6.930;2023-02-25T03:22:37;2.15;;;1.02;;
13321;SDS011;6730;46.248;6.930;2023-02-25T03:25:19;1.00;;;0.80;;
13321;SDS011;6730;46.248;6.930;2023-02-25T03:27:49;0.93;;;0.80;;
13321;SDS011;6730;46.248;6.930;2023-02-25T03:30:20;0.82;;;0.80;;
13321;SDS011;6730;46.248;6.930;2023-02-25T03:32:56;1.85;;;0.98;;
13321;SDS011;6730;46.248;6.930;2023-02-25T03:35:30;1.30;;;1.00;;
13321;SDS011;6730;46.248;6.930;2023-02-25T03:38:00;0.80;;;0.80;;
13321;SDS011;6730;46.248;6.930;2023-02-25T03:40:28;1.45;;;0.68;;
13321;SDS011;6730;46.248;6.930;2023-02-25T03:43:03;0.70;;;0.43;;
13321;SDS011;6730;46.248;6.930;2023-02-25T03:45:33;1.15;;;0.50;;
13321;SDS011;6730;46.248;6.930;2023-02-25T03:48:01;1.17;;;0.70;;
13321;SDS011;6730;46.248;6.930;2023-02-25T03:50:30;0.68;;;0.60;;
13321;SDS011;6730;46.248;6.930;2023-02-25T03:53:02;0.75;;;0.70;;
13321;SDS011;6730;46.248;6.930;2023-02-25T03:55:28;0.45;;;0.45;;
13321;SDS011;6730;46.248;6.930;2023-02-25T03:57:54;1.25;;;0.80;;
13321;SDS011;6730;46.248;6.930;2023-02-25T04:02:46;1.58;;;0.85;;
13321;SDS011;6730;46.248;6.930;2023-02-25T04:05:14;1.23;;;0.90;;
13321;SDS011;6730;46.248;6.930;2023-02-25T04:07:41;1.38;;;0.80;;
13321;SDS011;6730;46.248;6.930;2023-02-25T04:10:07;1.10;;;1.00;;
13321;SDS011;6730;46.248;6.930;2023-02-25T04:12:34;1.58;;;1.00;;
13321;SDS011;6730;46.248;6.930;2023-02-25T04:15:00;1.75;;;1.10;;
13321;SDS011;6730;46.248;6.930;2023-02-25T04:17:26;1.30;;;0.63;;
13321;SDS011;6730;46.248;6.930;2023-02-25T04:19:52;1.27;;;1.17;;
13321;SDS011;6730;46.248;6.930;2023-02-25T04:22:18;2.85;;;1.23;;
13321;SDS011;6730;46.248;6.930;2023-02-25T04:24:43;5.35;;;1.45;;
13321;SDS011;6730;46.248;6.930;2023-02-25T04:27:09;6.35;;;1.80;;
13321;SDS011;6730;46.248;6.930;2023-02-25T04:29:35;8.10;;;2.20;;
13321;SDS011;6730;46.248;6.930;2023-02-25T04:32:01;1.58;;;1.33;;
13321;SDS011;6730;46.248;6.930;2023-02-25T04:34:26;2.15;;;1.50;;
13321;SDS011;6730;46.248;6.930;2023-02-25T04:36:52;3.67;;;1.73;;
13321;SDS011;6730;46.248;6.930;2023-02-25T04:39:17;2.30;;;1.60;;
13321;SDS011;6730;46.248;6.930;2023-02-25T04:41:45;2.92;;;1.33;;
13321;SDS011;6730;46.248;6.930;2023-02-25T04:44:10;3.30;;;2.30;;
13321;SDS011;6730;46.248;6.930;2023-02-25T04:46:37;2.83;;;1.90;;
13321;SDS011;6730;46.248;6.930;2023-02-25T04:49:05;1.85;;;1.75;;
13321;SDS011;6730;46.248;6.930;2023-02-25T04:51:31;2.67;;;1.48;;
13321;SDS011;6730;46.248;6.930;2023-02-25T04:53:57;1.88;;;1.35;;
13321;SDS011;6730;46.248;6.930;2023-02-25T04:56:23;1.30;;;1.20;;
13321;SDS011;6730;46.248;6.930;2023-02-25T04:58:49;4.55;;;1.48;;
13321;SDS011;6730;46.248;6.930;2023-02-25T05:01:15;1.40;;;1.10;;
13321;SDS011;6730;46.248;6.930;2023-02-25T05:03:41;2.05;;;1.67;;
13321;SDS011;6730;46.248;6.930;2023-02-25T05:06:07;2.23;;;1.47;;
13321;SDS011;6730;46.248;6.930;2023-02-25T05:08:33;3.10;;;1.37;;
13321;SDS011;6730;46.248;6.930;2023-02-25T05:11:03;2.45;;;1.20;;
13321;SDS011;6730;46.248;6.930;2023-02-25T05:13:29;1.73;;;1.40;;
13321;SDS011;6730;46.248;6.930;2023-02-25T05:16:02;1.73;;;1.30;;
13321;SDS011;6730;46.248;6.930;2023-02-25T05:18:33;2.07;;;1.30;;
13321;SDS011;6730;46.248;6.930;2023-02-25T05:21:01;1.63;;;1.50;;
13321;SDS011;6730;46.248;6.930;2023-02-25T05:23:26;2.60;;;1.67;;
13321;SDS011;6730;46.248;6.930;2023-02-25T05:25:52;2.03;;;1.48;;
13321;SDS011;6730;46.248;6.930;2023-02-25T05:28:18;1.67;;;1.35;;
13321;SDS011;6730;46.248;6.930;2023-02-25T05:30:44;1.38;;;1.27;;
13321;SDS011;6730;46.248;6.930;2023-02-25T05:33:09;1.23;;;1.10;;
13321;SDS011;6730;46.248;6.930;2023-02-25T05:35:38;2.83;;;1.08;;
13321;SDS011;6730;46.248;6.930;2023-02-25T05:38:04;1.92;;;1.17;;
13321;SDS011;6730;46.248;6.930;2023-02-25T05:40:30;3.05;;;1.40;;
13321;SDS011;6730;46.248;6.930;2023-02-25T05:42:56;1.55;;;1.00;;
13321;SDS011;6730;46.248;6.930;2023-02-25T05:45:21;1.20;;;1.10;;
13321;SDS011;6730;46.248;6.930;2023-02-25T05:47:47;2.55;;;1.50;;
13321;SDS011;6730;46.248;6.930;2023-02-25T05:50:13;1.23;;;1.13;;
13321;SDS011;6730;46.248;6.930;2023-02-25T05:52:38;1.50;;;1.20;;
13321;SDS011;6730;46.248;6.930;2023-02-25T05:55:04;2.58;;;1.33;;
13321;SDS011;6730;46.248;6.930;2023-02-25T05:57:32;1.20;;;1.10;;
13321;SDS011;6730;46.248;6.930;2023-02-25T05:59:58;1.60;;;1.20;;
13321;SDS011;6730;46.248;6.930;2023-02-25T06:02:25;2.25;;;1.25;;
13321;SDS011;6730;46.248;6.930;2023-02-25T06:04:54;1.95;;;1.33;;
13321;SDS011;6730;46.248;6.930;2023-02-25T06:07:20;3.10;;;1.48;;
13321;SDS011;6730;46.248;6.930;2023-02-25T06:09:46;1.77;;;1.50;;
13321;SDS011;6730;46.248;6.930;2023-02-25T06:12:11;1.58;;;1.33;;
13321;SDS011;6730;46.248;6.930;2023-02-25T06:14:37;1.58;;;1.30;;
13321;SDS011;6730;46.248;6.930;2023-02-25T06:17:03;1.63;;;1.23;;
13321;SDS011;6730;46.248;6.930;2023-02-25T06:19:28;1.20;;;1.10;;
13321;SDS011;6730;46.248;6.930;2023-02-25T06:21:54;1.58;;;1.17;;
13321;SDS011;6730;46.248;6.930;2023-02-25T06:24:20;1.50;;;1.30;;
13321;SDS011;6730;46.248;6.930;2023-02-25T06:26:47;2.78;;;1.20;;
13321;SDS011;6730;46.248;6.930;2023-02-25T06:29:12;1.48;;;1.10;;
13321;SDS011;6730;46.248;6.930;2023-02-25T06:31:38;3.15;;;1.40;;
13321;SDS011;6730;46.248;6.930;2023-02-25T06:34:04;3.30;;;2.08;;
13321;SDS011;6730;46.248;6.930;2023-02-25T06:36:30;2.40;;;1.70;;
13321;SDS011;6730;46.248;6.930;2023-02-25T06:38:56;2.47;;;1.77;;
13321;SDS011;6730;46.248;6.930;2023-02-25T06:41:22;3.70;;;2.05;;
13321;SDS011;6730;46.248;6.930;2023-02-25T06:43:48;2.28;;;1.90;;
13321;SDS011;6730;46.248;6.930;2023-02-25T06:46:18;2.33;;;1.60;;
13321;SDS011;6730;46.248;6.930;2023-02-25T06:48:46;3.70;;;1.30;;
13321;SDS011;6730;46.248;6.930;2023-02-25T06:51:12;2.03;;;1.60;;
13321;SDS011;6730;46.248;6.930;2023-02-25T06:53:39;2.92;;;1.52;;
13321;SDS011;6730;46.248;6.930;2023-02-25T06:56:06;3.40;;;1.73;;
13321;SDS011;6730;46.248;6.930;2023-02-25T06:58:33;3.03;;;1.33;;
13321;SDS011;6730;46.248;6.930;2023-02-25T07:01:00;2.05;;;1.35;;
13321;SDS011;6730;46.248;6.930;2023-02-25T07:03:29;5.30;;;1.58;;
13321;SDS011;6730;46.248;6.930;2023-02-25T07:05:54;2.45;;;1.60;;
13321;SDS011;6730;46.248;6.930;2023-02-25T07:08:20;2.95;;;1.70;;
13321;SDS011;6730;46.248;6.930;2023-02-25T07:10:45;3.10;;;1.42;;
13321;SDS011;6730;46.248;6.930;2023-02-25T07:13:11;1.80;;;1.40;;
13321;SDS011;6730;46.248;6.930;2023-02-25T07:15:37;2.90;;;1.40;;
13321;SDS011;6730;46.248;6.930;2023-02-25T07:18:03;1.35;;;1.20;;
13321;SDS011;6730;46.248;6.930;2023-02-25T07:20:29;1.95;;;1.35;;
13321;SDS011;6730;46.248;6.930;2023-02-25T07:22:55;2.22;;;1.58;;
13321;SDS011;6730;46.248;6.930;2023-02-25T07:25:20;2.38;;;1.67;;
13321;SDS011;6730;46.248;6.930;2023-02-25T07:27:46;2.63;;;1.80;;
13321;SDS011;6730;46.248;6.930;2023-02-25T07:30:12;2.75;;;1.90;;
13321;SDS011;6730;46.248;6.930;2023-02-25T07:32:38;2.50;;;1.80;;
13321;SDS011;6730;46.248;6.930;2023-02-25T07:35:05;3.90;;;2.33;;
13321;SDS011;6730;46.248;6.930;2023-02-25T07:37:31;2.40;;;1.98;;
13321;SDS011;6730;46.248;6.930;2023-02-25T07:39:56;2.67;;;1.80;;
13321;SDS011;6730;46.248;6.930;2023-02-25T07:42:24;5.63;;;2.25;;
13321;SDS011;6730;46.248;6.930;2023-02-25T07:44:53;3.57;;;1.90;;
13321;SDS011;6730;46.248;6.930;2023-02-25T07:47:19;2.33;;;2.10;;
13321;SDS011;6730;46.248;6.930;2023-02-25T07:49:45;2.92;;;1.85;;
13321;SDS011;6730;46.248;6.930;2023-02-25T07:52:11;2.53;;;1.88;;
13321;SDS011;6730;46.248;6.930;2023-02-25T07:54:37;2.22;;;1.52;;
13321;SDS011;6730;46.248;6.930;2023-02-25T07:57:03;4.13;;;2.13;;
13321;SDS011;6730;46.248;6.930;2023-02-25T07:59:29;3.85;;;1.75;;
13321;SDS011;6730;46.248;6.930;2023-02-25T08:01:56;3.47;;;1.90;;
13321;SDS011;6730;46.248;6.930;2023-02-25T08:04:22;3.75;;;1.92;;
13321;SDS011;6730;46.248;6.930;2023-02-25T08:06:48;3.33;;;2.00;;
13321;SDS011;6730;46.248;6.930;2023-02-25T08:09:15;2.47;;;1.80;;
13321;SDS011;6730;46.248;6.930;2023-02-25T08:11:42;2.00;;;1.30;;
13321;SDS011;6730;46.248;6.930;2023-02-25T08:14:08;3.20;;;2.03;;
13321;SDS011;6730;46.248;6.930;2023-02-25T08:16:35;3.30;;;2.00;;
13321;SDS011;6730;46.248;6.930;2023-02-25T08:19:01;2.05;;;1.75;;
13321;SDS011;6730;46.248;6.930;2023-02-25T08:21:28;3.13;;;1.92;;
13321;SDS011;6730;46.248;6.930;2023-02-25T08:23:54;5.18;;;2.10;;
13321;SDS011;6730;46.248;6.930;2023-02-25T08:26:20;2.33;;;1.67;;
13321;SDS011;6730;46.248;6.930;2023-02-25T08:28:48;2.92;;;2.30;;
13321;SDS011;6730;46.248;6.930;2023-02-25T08:31:14;2.28;;;1.88;;
13321;SDS011;6730;46.248;6.930;2023-02-25T08:33:41;3.13;;;2.13;;
13321;SDS011;6730;46.248;6.930;2023-02-25T08:36:12;3.35;;;2.05;;
13321;SDS011;6730;46.248;6.930;2023-02-25T08:38:44;2.35;;;1.83;;
13321;SDS011;6730;46.248;6.930;2023-02-25T08:41:10;3.20;;;2.35;;
13321;SDS011;6730;46.248;6.930;2023-02-25T08:43:36;4.47;;;2.35;;
13321;SDS011;6730;46.248;6.930;2023-02-25T08:46:02;3.03;;;2.25;;
13321;SDS011;6730;46.248;6.930;2023-02-25T08:48:30;3.88;;;2.60;;
13321;SDS011;6730;46.248;6.930;2023-02-25T08:51:00;2.08;;;1.80;;
13321;SDS011;6730;46.248;6.930;2023-02-25T08:53:32;3.67;;;2.35;;
13321;SDS011;6730;46.248;6.930;2023-02-25T08:56:03;3.35;;;2.17;;
13321;SDS011;6730;46.248;6.930;2023-02-25T08:58:40;6.95;;;2.22;;
13321;SDS011;6730;46.248;6.930;2023-02-25T09:01:10;3.58;;;2.28;;
13321;SDS011;6730;46.248;6.930;2023-02-25T09:03:39;2.72;;;1.90;;
13321;SDS011;6730;46.248;6.930;2023-02-25T09:06:17;3.63;;;1.85;;
13321;SDS011;6730;46.248;6.930;2023-02-25T09:08:44;3.65;;;2.38;;
13321;SDS011;6730;46.248;6.930;2023-02-25T09:11:10;4.35;;;2.10;;
13321;SDS011;6730;46.248;6.930;2023-02-25T09:13:35;5.03;;;2.03;;
13321;SDS011;6730;46.248;6.930;2023-02-25T09:16:01;3.30;;;2.25;;
13321;SDS011;6730;46.248;6.930;2023-02-25T09:18:27;4.90;;;2.17;;
13321;SDS011;6730;46.248;6.930;2023-02-25T09:20:55;4.68;;;2.05;;
13321;SDS011;6730;46.248;6.930;2023-02-25T09:23:20;3.47;;;2.20;;
13321;SDS011;6730;46.248;6.930;2023-02-25T09:25:46;4.03;;;2.55;;
13321;SDS011;6730;46.248;6.930;2023-02-25T09:28:12;4.15;;;2.53;;
13321;SDS011;6730;46.248;6.930;2023-02-25T09:30:38;6.13;;;3.22;;
13321;SDS011;6730;46.248;6.930;2023-02-25T09:33:03;2.90;;;2.35;;
13321;SDS011;6730;46.248;6.930;2023-02-25T09:35:29;2.55;;;2.20;;
13321;SDS011;6730;46.248;6.930;2023-02-25T09:37:56;3.58;;;2.75;;
13321;SDS011;6730;46.248;6.930;2023-02-25T09:40:22;3.15;;;2.40;;
13321;SDS011;6730;46.248;6.930;2023-02-25T09:45:32;2.65;;;2.45;;
13321;SDS011;6730;46.248;6.930;2023-02-25T09:48:00;3.60;;;2.03;;
13321;SDS011;6730;46.248;6.930;2023-02-25T09:50:37;3.55;;;2.80;;
13321;SDS011;6730;46.248;6.930;2023-02-25T09:53:12;7.32;;;2.53;;
13321;SDS011;6730;46.248;6.930;2023-02-25T09:55:40;4.28;;;2.70;;
13321;SDS011;6730;46.248;6.930;2023-02-25T10:00:36;4.60;;;2.67;;
13321;SDS011;6730;46.248;6.930;2023-02-25T10:03:21;3.90;;;2.50;;
13321;SDS011;6730;46.248;6.930;2023-02-25T10:05:59;4.68;;;2.65;;
13321;SDS011;6730;46.248;6.930;2023-02-25T10:08:42;4.63;;;2.60;;
13321;SDS011;6730;46.248;6.930;2023-02-25T10:11:26;4.20;;;2.70;;
13321;SDS011;6730;46.248;6.930;2023-02-25T10:19:41;4.78;;;3.38;;
13321;SDS011;6730;46.248;6.930;2023-02-25T10:22:31;2.50;;;2.17;;
13321;SDS011;6730;46.248;6.930;2023-02-25T10:25:22;4.07;;;2.78;;
13321;SDS011;6730;46.248;6.930;2023-02-25T10:30:31;4.88;;;3.47;;
13321;SDS011;6730;46.248;6.930;2023-02-25T10:33:15;4.20;;;2.78;;
13321;SDS011;6730;46.248;6.930;2023-02-25T10:35:46;4.18;;;3.00;;
13321;SDS011;6730;46.248;6.930;2023-02-25T10:38:15;4.72;;;3.25;;
13321;SDS011;6730;46.248;6.930;2023-02-25T10:40:41;3.63;;;3.03;;
13321;SDS011;6730;46.248;6.930;2023-02-25T10:43:20;3.88;;;3.03;;
13321;SDS011;6730;46.248;6.930;2023-02-25T10:45:48;3.40;;;3.10;;
13321;SDS011;6730;46.248;6.930;2023-02-25T10:48:20;5.53;;;3.10;;
13321;SDS011;6730;46.248;6.930;2023-02-25T10:51:00;4.75;;;3.10;;
13321;SDS011;6730;46.248;6.930;2023-02-25T10:53:30;5.32;;;3.05;;
13321;SDS011;6730;46.248;6.930;2023-02-25T10:55:57;5.18;;;2.90;;
13321;SDS011;6730;46.248;6.930;2023-02-25T11:03:57;3.65;;;3.05;;
13321;SDS011;6730;46.248;6.930;2023-02-25T11:08:51;3.72;;;2.80;;
13321;SDS011;6730;46.248;6.930;2023-02-25T11:13:44;7.75;;;6.07;;
13321;SDS011;6730;46.248;6.930;2023-02-25T11:16:24;12.30;;;9.88;;
13321;SDS011;6730;46.248;6.930;2023-02-25T11:18:54;7.07;;;4.55;;
13321;SDS011;6730;46.248;6.930;2023-02-25T11:21:28;4.68;;;3.58;;
13321;SDS011;6730;46.248;6.930;2023-02-25T11:24:05;5.00;;;3.20;;
13321;SDS011;6730;46.248;6.930;2023-02-25T11:26:52;4.55;;;2.88;;
13321;SDS011;6730;46.248;6.930;2023-02-25T11:29:19;5.45;;;3.05;;
13321;SDS011;6730;46.248;6.930;2023-02-25T11:32:01;4.32;;;3.28;;
13321;SDS011;6730;46.248;6.930;2023-02-25T11:37:24;4.47;;;2.80;;
13321;SDS011;6730;46.248;6.930;2023-02-25T11:39:59;4.00;;;3.30;;
13321;SDS011;6730;46.248;6.930;2023-02-25T11:42:25;4.20;;;3.08;;
13321;SDS011;6730;46.248;6.930;2023-02-25T11:44:59;4.18;;;3.20;;
13321;SDS011;6730;46.248;6.930;2023-02-25T11:47:32;5.60;;;3.30;;
13321;SDS011;6730;46.248;6.930;2023-02-25T11:50:23;4.50;;;3.05;;
13321;SDS011;6730;46.248;6.930;2023-02-25T12:11:54;3.40;;;2.70;;
13321;SDS011;6730;46.248;6.930;2023-02-25T12:26:15;4.82;;;3.05;;
13321;SDS011;6730;46.248;6.930;2023-02-25T12:31:18;16.30;;;8.10;;
13321;SDS011;6730;46.248;6.930;2023-02-25T12:34:11;4.57;;;3.05;;
13321;SDS011;6730;46.248;6.930;2023-02-25T12:37:01;4.38;;;2.72;;
13321;SDS011;6730;46.248;6.930;2023-02-25T12:39:46;5.15;;;3.00;;
13321;SDS011;6730;46.248;6.930;2023-02-25T12:42:54;4.07;;;3.03;;
13321;SDS011;6730;46.248;6.930;2023-02-25T12:45:53;4.28;;;3.25;;
13321;SDS011;6730;46.248;6.930;2023-02-25T12:57:07;4.88;;;3.30;;
13321;SDS011;6730;46.248;6.930;2023-02-25T13:28:23;6.50;;;3.30;;
13321;SDS011;6730;46.248;6.930;2023-02-25T13:50:02;6.32;;;3.00;;
13321;SDS011;6730;46.248;6.930;2023-02-25T14:03:40;3.80;;;3.10;;
13321;SDS011;6730;46.248;6.930;2023-02-25T14:11:19;4.68;;;3.40;;
13321;SDS011;6730;46.248;6.930;2023-02-25T14:14:04;3.85;;;3.17;;
13321;SDS011;6730;46.248;6.930;2023-02-25T14:16:38;4.93;;;3.30;;
13321;SDS011;6730;46.248;6.930;2023-02-25T14:19:42;4.22;;;2.95;;
13321;SDS011;6730;46.248;6.930;2023-02-25T14:33:27;5.20;;;3.50;;
13321;SDS011;6730;46.248;6.930;2023-02-25T14:36:04;3.95;;;2.83;;
13321;SDS011;6730;46.248;6.930;2023-02-25T14:38:36;6.45;;;2.95;;
13321;SDS011;6730;46.248;6.930;2023-02-25T14:44:00;8.57;;;3.42;;
13321;SDS011;6730;46.248;6.930;2023-02-25T14:46:35;4.53;;;3.13;;
13321;SDS011;6730;46.248;6.930;2023-02-25T14:52:12;5.65;;;3.35;;
13321;SDS011;6730;46.248;6.930;2023-02-25T15:06:12;3.13;;;2.42;;
13321;SDS011;6730;46.248;6.930;2023-02-25T15:16:42;6.00;;;2.80;;
13321;SDS011;6730;46.248;6.930;2023-02-25T15:19:19;6.13;;;3.00;;
13321;SDS011;6730;46.248;6.930;2023-02-25T15:22:26;4.53;;;2.90;;
13321;SDS011;6730;46.248;6.930;2023-02-25T15:24:52;5.72;;;2.90;;
13321;SDS011;6730;46.248;6.930;2023-02-25T15:30:05;4.00;;;3.03;;
13321;SDS011;6730;46.248;6.930;2023-02-25T15:35:11;3.67;;;3.15;;
13321;SDS011;6730;46.248;6.930;2023-02-25T15:42:43;4.30;;;3.30;;
13321;SDS011;6730;46.248;6.930;2023-02-25T15:53:07;5.75;;;3.38;;
13321;SDS011;6730;46.248;6.930;2023-02-25T15:55:41;8.98;;;3.40;;
13321;SDS011;6730;46.248;6.930;2023-02-25T16:08:37;5.15;;;3.13;;
13321;SDS011;6730;46.248;6.930;2023-02-25T16:11:18;5.13;;;3.22;;
13321;SDS011;6730;46.248;6.930;2023-02-25T16:13:44;5.97;;;4.22;;
13321;SDS011;6730;46.248;6.930;2023-02-25T16:16:11;11.05;;;7.00;;
13321;SDS011;6730;46.248;6.930;2023-02-25T16:18:40;4.95;;;3.65;;
13321;SDS011;6730;46.248;6.930;2023-02-25T16:21:26;4.53;;;2.83;;
13321;SDS011;6730;46.248;6.930;2023-02-25T16:24:05;4.43;;;2.67;;
13321;SDS011;6730;46.248;6.930;2023-02-25T16:41:04;3.72;;;2.50;;
13321;SDS011;6730;46.248;6.930;2023-02-25T16:43:31;7.10;;;3.60;;
13321;SDS011;6730;46.248;6.930;2023-02-25T16:46:04;4.30;;;2.92;;
13321;SDS011;6730;46.248;6.930;2023-02-25T16:48:43;4.18;;;3.15;;
13321;SDS011;6730;46.248;6.930;2023-02-25T16:51:18;8.75;;;2.58;;
13321;SDS011;6730;46.248;6.930;2023-02-25T16:53:55;2.65;;;2.28;;
13321;SDS011;6730;46.248;6.930;2023-02-25T16:56:40;4.82;;;2.75;;
13321;SDS011;6730;46.248;6.930;2023-02-25T17:01:34;3.53;;;2.80;;
13321;SDS011;6730;46.248;6.930;2023-02-25T17:06:33;3.35;;;2.45;;
13321;SDS011;6730;46.248;6.930;2023-02-25T17:08:58;3.63;;;2.60;;
13321;SDS011;6730;46.248;6.930;2023-02-25T17:11:24;3.08;;;2.63;;
13321;SDS011;6730;46.248;6.930;2023-02-25T17:13:51;4.40;;;2.85;;
13321;SDS011;6730;46.248;6.930;2023-02-25T17:16:27;3.65;;;3.17;;
13321;SDS011;6730;46.248;6.930;2023-02-25T17:19:07;3.78;;;3.00;;
13321;SDS011;6730;46.248;6.930;2023-02-25T17:21:38;3.55;;;2.58;;
13321;SDS011;6730;46.248;6.930;2023-02-25T17:24:10;3.45;;;2.60;;
13321;SDS011;6730;46.248;6.930;2023-02-25T17:26:39;4.45;;;2.95;;
13321;SDS011;6730;46.248;6.930;2023-02-25T17:29:15;4.18;;;2.50;;
13321;SDS011;6730;46.248;6.930;2023-02-25T17:31:43;4.15;;;3.25;;
13321;SDS011;6730;46.248;6.930;2023-02-25T17:34:16;4.75;;;3.25;;
13321;SDS011;6730;46.248;6.930;2023-02-25T17:37:00;4.78;;;2.90;;
13321;SDS011;6730;46.248;6.930;2023-02-25T17:39:29;4.45;;;3.03;;
13321;SDS011;6730;46.248;6.930;2023-02-25T17:41:55;4.25;;;3.10;;
13321;SDS011;6730;46.248;6.930;2023-02-25T17:47:08;3.78;;;2.65;;
13321;SDS011;6730;46.248;6.930;2023-02-25T17:49:37;6.57;;;3.17;;
13321;SDS011;6730;46.248;6.930;2023-02-25T17:52:04;4.20;;;2.90;;
13321;SDS011;6730;46.248;6.930;2023-02-25T17:54:32;3.38;;;3.05;;
13321;SDS011;6730;46.248;6.930;2023-02-25T17:57:08;4.18;;;3.28;;
13321;SDS011;6730;46.248;6.930;2023-02-25T17:59:47;4.20;;;3.00;;
13321;SDS011;6730;46.248;6.930;2023-02-25T18:04:46;4.45;;;3.20;;
13321;SDS011;6730;46.248;6.930;2023-02-25T18:07:29;4.40;;;3.17;;
13321;SDS011;6730;46.248;6.930;2023-02-25T18:09:56;4.45;;;3.17;;
13321;SDS011;6730;46.248;6.930;2023-02-25T18:14:56;6.00;;;3.25;;
13321;SDS011;6730;46.248;6.930;2023-02-25T18:20:02;4.97;;;2.90;;
13321;SDS011;6730;46.248;6.930;2023-02-25T18:22:35;5.07;;;2.70;;
13321;SDS011;6730;46.248;6.930;2023-02-25T18:25:06;4.05;;;3.03;;
13321;SDS011;6730;46.248;6.930;2023-02-25T18:28:05;3.28;;;2.95;;
13321;SDS011;6730;46.248;6.930;2023-02-25T18:30:36;5.18;;;2.80;;
13321;SDS011;6730;46.248;6.930;2023-02-25T18:33:01;4.72;;;2.80;;
13321;SDS011;6730;46.248;6.930;2023-02-25T18:35:28;5.30;;;3.30;;
13321;SDS011;6730;46.248;6.930;2023-02-25T18:37:56;4.82;;;3.40;;
13321;SDS011;6730;46.248;6.930;2023-02-25T18:40:25;6.25;;;3.45;;
13321;SDS011;6730;46.248;6.930;2023-02-25T18:42:52;4.93;;;4.15;;
13321;SDS011;6730;46.248;6.930;2023-02-25T18:45:19;5.60;;;4.50;;
13321;SDS011;6730;46.248;6.930;2023-02-25T18:47:46;5.70;;;3.80;;
13321;SDS011;6730;46.248;6.930;2023-02-25T18:50:12;4.43;;;3.50;;
13321;SDS011;6730;46.248;6.930;2023-02-25T18:52:39;7.07;;;3.63;;
13321;SDS011;6730;46.248;6.930;2023-02-25T18:55:05;6.57;;;3.80;;
13321;SDS011;6730;46.248;6.930;2023-02-25T18:57:32;5.97;;;3.40;;
13321;SDS011;6730;46.248;6.930;2023-02-25T18:59:58;6.80;;;3.40;;
13321;SDS011;6730;46.248;6.930;2023-02-25T19:02:25;5.90;;;3.20;;
13321;SDS011;6730;46.248;6.930;2023-02-25T19:04:55;4.53;;;2.77;;
13321;SDS011;6730;46.248;6.930;2023-02-25T19:07:27;6.05;;;3.78;;
13321;SDS011;6730;46.248;6.930;2023-02-25T19:09:57;3.83;;;3.17;;
13321;SDS011;6730;46.248;6.930;2023-02-25T19:12:23;4.70;;;3.53;;
13321;SDS011;6730;46.248;6.930;2023-02-25T19:14:56;6.77;;;4.73;;
13321;SDS011;6730;46.248;6.930;2023-02-25T19:17:23;5.00;;;3.83;;
13321;SDS011;6730;46.248;6.930;2023-02-25T19:19:50;6.63;;;3.80;;
13321;SDS011;6730;46.248;6.930;2023-02-25T19:22:15;5.10;;;3.17;;
13321;SDS011;6730;46.248;6.930;2023-02-25T19:24:42;7.00;;;4.60;;
13321;SDS011;6730;46.248;6.930;2023-02-25T19:27:22;5.73;;;3.70;;
13321;SDS011;6730;46.248;6.930;2023-02-25T19:29:50;6.57;;;3.87;;
13321;SDS011;6730;46.248;6.930;2023-02-25T19:32:18;6.47;;;3.60;;